createdAt,value
2023-04-04T00:02:06.255Z,7.80
2023-04-04T00:04:34.764Z,7.80
2023-04-04T00:07:03.298Z,7.80
2023-04-04T00:09:32.478Z,7.80
2023-04-04T00:12:00.999Z,7.70
2023-04-04T00:14:29.487Z,7.80
2023-04-04T00:16:57.980Z,7.80
2023-04-04T00:19:27.827Z,7.80
2023-04-04T00:21:56.528Z,7.80
2023-04-04T00:24:27.821Z,7.80
2023-04-04T00:26:56.633Z,7.80
2023-04-04T00:29:25.156Z,7.80
2023-04-04T00:31:57.921Z,7.90
2023-04-04T00:34:27.759Z,7.80
2023-04-04T00:36:56.230Z,7.80
2023-04-04T00:39:26.557Z,7.90
2023-04-04T00:41:55.270Z,7.90
2023-04-04T00:44:23.806Z,7.90
2023-04-04T00:47:11.826Z,7.90
2023-04-04T00:49:42.131Z,7.90
2023-04-04T00:52:10.726Z,7.90
2023-04-04T00:54:39.728Z,7.80
2023-04-04T00:57:10.211Z,7.80
2023-04-04T00:59:39.138Z,7.80
2023-04-04T01:02:07.800Z,7.80
2023-04-04T01:04:37.395Z,7.80
2023-04-04T01:07:07.894Z,7.70
2023-04-04T01:09:37.009Z,7.70
2023-04-04T01:12:20.774Z,7.70
2023-04-04T01:14:49.263Z,7.70
2023-04-04T01:17:18.350Z,7.70
2023-04-04T01:19:56.351Z,7.70
2023-04-04T01:22:28.627Z,7.70
2023-04-04T01:24:59.456Z,7.70
2023-04-04T01:27:29.555Z,7.70
2023-04-04T01:29:58.402Z,7.70
2023-04-04T01:32:37.528Z,7.70
2023-04-04T01:35:23.360Z,7.70
2023-04-04T01:38:19.325Z,7.80
2023-04-04T01:41:38.624Z,7.80
2023-04-04T01:44:10.756Z,7.80
2023-04-04T01:47:08.614Z,7.80
2023-04-04T01:49:37.100Z,7.80
2023-04-04T01:52:07.257Z,7.70
2023-04-04T01:54:37.161Z,7.80
2023-04-04T01:57:05.708Z,7.80
2023-04-04T01:59:36.448Z,7.80
2023-04-04T02:02:04.900Z,7.80
2023-04-04T02:04:34.063Z,7.80
2023-04-04T02:07:02.641Z,7.80
2023-04-04T02:09:31.123Z,7.80
2023-04-04T02:11:59.999Z,7.80
2023-04-04T02:14:28.777Z,7.80
2023-04-04T02:16:58.723Z,7.70
2023-04-04T02:19:27.303Z,7.70
2023-04-04T02:21:56.598Z,7.70
2023-04-04T02:24:25.157Z,7.70
2023-04-04T02:26:53.590Z,7.60
2023-04-04T02:29:22.949Z,7.60
2023-04-04T02:31:51.537Z,7.60
2023-04-04T02:34:21.430Z,7.70
2023-04-04T02:36:50.250Z,7.70
2023-04-04T02:39:18.703Z,7.70
2023-04-04T02:41:47.712Z,7.70
2023-04-04T02:44:16.160Z,7.80
2023-04-04T02:46:44.642Z,7.70
2023-04-04T02:49:13.443Z,7.70
2023-04-04T02:51:43.423Z,7.70
2023-04-04T02:54:11.866Z,7.70
2023-04-04T02:56:40.513Z,7.70
2023-04-04T02:59:09.093Z,7.70
2023-04-04T03:01:37.580Z,7.70
2023-04-04T03:04:07.145Z,7.60
2023-04-04T03:06:35.653Z,7.60
2023-04-04T03:09:05.687Z,7.60
2023-04-04T03:11:34.665Z,7.60
2023-04-04T03:14:03.367Z,7.60
2023-04-04T03:16:32.141Z,7.60
2023-04-04T03:22:00.708Z,7.60
2023-04-04T03:24:30.621Z,7.70
2023-04-04T03:27:28.376Z,7.70
2023-04-04T03:29:56.827Z,7.70
2023-04-04T03:32:25.348Z,7.80
2023-04-04T03:34:53.886Z,7.80
2023-04-04T03:37:22.998Z,7.80
2023-04-04T03:39:52.864Z,7.80
2023-04-04T03:42:21.899Z,7.80
2023-04-04T03:45:02.941Z,7.90
2023-04-04T03:47:36.508Z,7.90
2023-04-04T03:50:05.570Z,7.90
2023-04-04T03:52:38.331Z,7.90
2023-04-04T03:55:27.353Z,7.90
2023-04-04T03:57:55.964Z,7.90
2023-04-04T04:00:24.712Z,7.90
2023-04-04T04:02:53.223Z,7.90
2023-04-04T04:05:21.860Z,7.90
2023-04-04T04:07:50.376Z,7.90
2023-04-04T04:10:19.046Z,7.90
2023-04-04T04:12:49.408Z,7.90
2023-04-04T04:15:17.855Z,7.90
2023-04-04T04:17:46.379Z,7.90
2023-04-04T04:20:15.244Z,7.90
2023-04-04T04:22:47.561Z,7.90
2023-04-04T04:25:17.052Z,7.90
2023-04-04T04:27:46.103Z,7.90
2023-04-04T04:30:16.287Z,8.00
2023-04-04T04:32:45.156Z,8.00
2023-04-04T04:35:13.587Z,8.00
2023-04-04T04:37:42.065Z,8.00
2023-04-04T04:40:11.548Z,8.00
2023-04-04T04:42:46.446Z,8.00
2023-04-04T04:45:16.694Z,8.00
2023-04-04T04:47:45.176Z,8.00
2023-04-04T04:50:13.693Z,8.10
2023-04-04T04:52:42.195Z,8.10
2023-04-04T04:55:11.783Z,8.10
2023-04-04T04:57:40.485Z,8.10
2023-04-04T05:00:11.075Z,8.20
2023-04-04T05:02:40.948Z,8.20
2023-04-04T05:05:10.060Z,8.20
2023-04-04T05:07:47.390Z,8.20
2023-04-04T05:10:16.142Z,8.20
2023-04-04T05:13:18.583Z,8.20
2023-04-04T05:15:48.536Z,8.30
2023-04-04T05:18:18.345Z,8.30
2023-04-04T05:20:53.258Z,8.30
2023-04-04T05:23:21.755Z,8.30
2023-04-04T05:25:51.518Z,8.40
2023-04-04T05:28:20.237Z,8.40
2023-04-04T05:30:48.827Z,8.40
2023-04-04T05:33:18.721Z,8.50
2023-04-04T05:35:47.298Z,8.50
2023-04-04T05:38:15.907Z,8.60
2023-04-04T05:40:45.462Z,8.60
2023-04-04T05:43:14.691Z,8.70
2023-04-04T05:45:43.327Z,8.70
2023-04-04T05:48:11.964Z,8.70
2023-04-04T05:50:41.978Z,8.80
2023-04-04T05:53:16.196Z,8.80
2023-04-04T05:55:44.633Z,8.60
2023-04-04T05:58:13.720Z,8.50
2023-04-04T06:00:42.903Z,8.40
2023-04-04T06:03:19.002Z,8.30
2023-04-04T06:05:53.809Z,8.20
2023-04-04T06:08:23.512Z,8.10
2023-04-04T06:10:51.996Z,7.90
2023-04-04T06:13:23.061Z,7.80
2023-04-04T06:15:51.522Z,7.70
2023-04-04T06:18:23.001Z,7.60
2023-04-04T06:20:52.977Z,7.40
2023-04-04T06:23:21.376Z,7.20
2023-04-04T06:25:50.056Z,7.00
2023-04-04T06:28:37.032Z,6.90
2023-04-04T06:31:08.853Z,6.70
2023-04-04T06:33:37.326Z,6.60
2023-04-04T06:36:07.793Z,6.50
2023-04-04T06:38:42.457Z,6.40
2023-04-04T06:41:11.059Z,6.30
2023-04-04T06:43:39.518Z,6.20
2023-04-04T06:46:08.058Z,6.00
2023-04-04T06:48:36.646Z,5.90
2023-04-04T06:51:09.092Z,5.90
2023-04-04T06:53:37.732Z,5.80
2023-04-04T06:56:07.032Z,5.70
2023-04-04T06:58:35.568Z,5.70
2023-04-04T07:01:04.085Z,5.70
2023-04-04T07:03:32.822Z,5.60
2023-04-04T07:06:04.889Z,5.60
2023-04-04T07:08:36.928Z,5.60
2023-04-04T07:11:06.362Z,5.60
2023-04-04T07:13:35.219Z,5.60
2023-04-04T07:16:03.851Z,5.60
2023-04-04T07:18:32.409Z,5.60
2023-04-04T07:21:00.885Z,5.50
2023-04-04T07:23:29.318Z,5.50
2023-04-04T07:26:02.764Z,5.60
2023-04-04T07:28:31.352Z,5.60
2023-04-04T07:31:01.961Z,5.50
2023-04-04T07:33:30.520Z,5.50
2023-04-04T07:36:00.080Z,5.50
2023-04-04T07:38:28.832Z,5.40
2023-04-04T07:40:57.314Z,5.40
2023-04-04T07:43:27.391Z,5.40
2023-04-04T07:46:14.540Z,5.40
2023-04-04T07:48:43.099Z,5.30
2023-04-04T07:51:11.573Z,5.30
2023-04-04T07:53:40.042Z,5.20
2023-04-04T07:56:08.614Z,5.20
2023-04-04T07:58:38.472Z,5.20
2023-04-04T08:01:07.324Z,5.20
2023-04-04T08:03:35.907Z,5.20
2023-04-04T08:06:04.568Z,5.20
2023-04-04T08:08:33.023Z,5.20
2023-04-04T08:11:27.421Z,5.20
2023-04-04T08:14:27.893Z,5.10
2023-04-04T08:16:56.374Z,5.10
2023-04-04T08:19:25.104Z,5.20
2023-04-04T08:21:53.607Z,5.20
2023-04-04T08:24:22.914Z,5.30
2023-04-04T08:27:04.650Z,5.40
2023-04-04T08:29:35.551Z,5.30
2023-04-04T08:32:04.067Z,5.40
2023-04-04T08:34:32.815Z,5.30
2023-04-04T08:37:01.340Z,5.30
2023-04-04T08:39:29.757Z,5.30
2023-04-04T08:42:05.668Z,5.20
2023-04-04T08:44:38.093Z,5.20
2023-04-04T08:47:10.602Z,5.10
2023-04-04T08:49:45.073Z,5.10
2023-04-04T08:52:17.901Z,5.20
2023-04-04T08:54:47.470Z,5.20
2023-04-04T08:57:16.035Z,5.20
2023-04-04T08:59:46.022Z,5.20
2023-04-04T09:02:25.902Z,5.30
2023-04-04T09:05:05.415Z,5.30
2023-04-04T09:08:12.522Z,5.30
2023-04-04T09:10:47.939Z,5.20
2023-04-04T09:13:17.072Z,5.20
2023-04-04T09:15:50.230Z,5.10
2023-04-04T09:18:43.716Z,5.10
2023-04-04T09:21:13.519Z,5.10
2023-04-04T09:23:41.972Z,5.10
2023-04-04T09:26:11.228Z,5.10
2023-04-04T09:28:39.782Z,5.10
2023-04-04T09:31:10.708Z,5.10
2023-04-04T09:33:40.561Z,5.10
2023-04-04T09:36:12.936Z,5.00
2023-04-04T09:38:44.254Z,5.00
2023-04-04T09:41:39.584Z,5.10
2023-04-04T09:44:08.778Z,5.10
2023-04-04T09:46:39.064Z,5.00
2023-04-04T09:49:13.460Z,4.90
2023-04-04T09:51:43.423Z,4.90
2023-04-04T09:54:18.619Z,5.00
2023-04-04T09:57:27.607Z,5.00
2023-04-04T10:00:00.894Z,5.10
2023-04-04T10:02:32.531Z,5.10
2023-04-04T10:07:34.079Z,5.00
2023-04-04T10:10:06.717Z,5.00
2023-04-04T10:12:35.570Z,5.10
2023-04-04T10:15:04.890Z,5.20
2023-04-04T10:18:01.546Z,5.30
2023-04-04T10:20:33.279Z,5.30
2023-04-04T10:23:02.610Z,5.30
2023-04-04T10:25:31.608Z,5.30
2023-04-04T10:28:00.130Z,5.40
2023-04-04T10:30:28.777Z,5.40
2023-04-04T10:33:07.219Z,5.40
2023-04-04T10:35:38.079Z,5.40
2023-04-04T10:38:08.231Z,5.30
2023-04-04T10:40:39.985Z,5.40
2023-04-04T10:43:09.030Z,5.30
2023-04-04T10:45:40.192Z,5.30
2023-04-04T10:48:10.830Z,5.20
2023-04-04T10:50:40.359Z,5.10
2023-04-04T10:53:10.598Z,5.20
2023-04-04T10:55:41.430Z,5.20
2023-04-04T10:58:12.073Z,5.20
2023-04-04T11:00:52.947Z,5.10
2023-04-04T11:03:24.427Z,5.20
2023-04-04T11:06:18.352Z,5.20
2023-04-04T11:08:57.193Z,5.30
2023-04-04T11:11:28.234Z,5.30
2023-04-04T11:14:01.932Z,5.30
2023-04-04T11:16:47.972Z,5.20
2023-04-04T11:19:18.935Z,5.20
2023-04-04T11:22:13.075Z,5.00
2023-04-04T11:24:44.659Z,5.00
2023-04-04T11:27:13.817Z,4.90
2023-04-04T11:29:53.927Z,4.90
2023-04-04T11:32:50.070Z,4.90
2023-04-04T11:35:23.089Z,4.90
2023-04-04T11:38:03.012Z,5.00
2023-04-04T11:40:43.086Z,4.90
2023-04-04T11:44:04.294Z,4.90
2023-04-04T11:46:34.030Z,4.90
2023-04-04T11:49:03.475Z,4.90
2023-04-04T11:51:34.007Z,4.90
2023-04-04T11:54:02.491Z,4.90
2023-04-04T11:56:37.332Z,4.80
2023-04-04T11:59:11.353Z,4.90
2023-04-04T12:01:40.794Z,4.80
2023-04-04T12:04:11.074Z,4.70
2023-04-04T12:06:41.383Z,4.80
2023-04-04T12:09:13.139Z,4.70
2023-04-04T12:11:41.905Z,4.70
2023-04-04T12:14:18.486Z,4.70
2023-04-04T12:16:49.818Z,4.60
2023-04-04T12:19:19.411Z,4.60
2023-04-04T12:21:50.211Z,4.60
2023-04-04T12:24:19.069Z,4.50
2023-04-04T12:26:51.561Z,4.50
2023-04-04T12:29:24.106Z,4.50
2023-04-04T12:31:54.667Z,4.50
2023-04-04T12:34:25.933Z,4.50
2023-04-04T12:36:58.594Z,4.50
2023-04-04T12:39:28.837Z,4.50
2023-04-04T12:42:01.429Z,4.40
2023-04-04T12:44:33.173Z,4.30
2023-04-04T12:47:04.854Z,4.20
2023-04-04T12:49:40.334Z,4.30
2023-04-04T12:52:20.559Z,4.30
2023-04-04T12:54:59.208Z,4.30
2023-04-04T12:57:37.066Z,4.30
2023-04-04T13:02:57.706Z,4.20
2023-04-04T13:05:27.337Z,4.20
2023-04-04T13:08:08.241Z,4.20
2023-04-04T13:11:04.388Z,4.10
2023-04-04T13:13:35.467Z,4.10
2023-04-04T13:16:06.711Z,4.10
2023-04-04T13:18:38.635Z,4.10
2023-04-04T13:21:08.675Z,4.10
2023-04-04T13:23:40.960Z,4.00
2023-04-04T13:26:11.400Z,4.00
2023-04-04T13:28:40.387Z,3.90
2023-04-04T13:31:11.797Z,3.90
2023-04-04T13:33:40.581Z,4.00
2023-04-04T13:36:09.281Z,4.00
2023-04-04T13:38:39.193Z,4.00
2023-04-04T13:41:07.728Z,3.90
2023-04-04T13:43:36.169Z,3.90
2023-04-04T13:46:04.684Z,3.90
2023-04-04T13:48:33.156Z,3.90
2023-04-04T13:51:01.643Z,3.90
2023-04-04T13:53:30.271Z,3.80
2023-04-04T13:56:16.788Z,3.80
2023-04-04T13:58:47.130Z,3.80
2023-04-04T14:01:16.018Z,3.80
2023-04-04T14:03:44.681Z,3.80
2023-04-04T14:06:13.542Z,3.80
2023-04-04T14:08:42.005Z,3.80
2023-04-04T14:11:11.866Z,3.90
2023-04-04T14:13:40.361Z,3.80
2023-04-04T14:16:09.337Z,3.80
2023-04-04T14:18:37.992Z,3.80
2023-04-04T14:21:07.360Z,3.70
2023-04-04T14:23:35.905Z,3.60
2023-04-04T14:26:04.544Z,3.60
2023-04-04T14:28:34.569Z,3.60
2023-04-04T14:31:03.071Z,3.60
2023-04-04T14:33:31.535Z,3.60
2023-04-04T14:35:59.975Z,3.50
2023-04-04T14:38:28.434Z,3.40
2023-04-04T14:40:56.982Z,3.30
2023-04-04T14:43:25.397Z,3.30
2023-04-04T14:45:55.560Z,3.40
2023-04-04T14:48:24.048Z,3.40
2023-04-04T14:50:54.026Z,3.30
2023-04-04T14:53:22.862Z,3.20
2023-04-04T14:55:52.772Z,3.20
2023-04-04T14:58:21.282Z,3.30
2023-04-04T15:00:50.378Z,3.30
2023-04-04T15:03:20.264Z,3.20
2023-04-04T15:08:56.003Z,3.10
2023-04-04T15:11:24.526Z,3.20
2023-04-04T15:13:52.951Z,3.20
2023-04-04T15:16:21.626Z,3.10
2023-04-04T15:18:51.595Z,3.10
2023-04-04T15:21:20.025Z,3.10
2023-04-04T15:23:48.567Z,3.00
2023-04-04T15:26:17.049Z,3.10
2023-04-04T15:28:45.520Z,3.10
2023-04-04T15:31:39.224Z,3.10
2023-04-04T15:34:09.567Z,3.10
2023-04-04T15:36:38.095Z,3.00
2023-04-04T15:39:06.689Z,3.00
2023-04-04T15:41:35.123Z,3.00
2023-04-04T15:44:03.545Z,2.90
2023-04-04T15:46:32.547Z,2.90
2023-04-04T15:49:01.166Z,2.90
2023-04-04T15:51:32.348Z,2.90
2023-04-04T15:54:00.798Z,2.90
2023-04-04T15:56:29.260Z,2.80
2023-04-04T15:58:59.420Z,2.80
2023-04-04T16:01:28.482Z,2.70
2023-04-04T16:03:56.992Z,2.80
2023-04-04T16:06:25.863Z,2.70
2023-04-04T16:08:55.672Z,2.70
2023-04-04T16:11:25.558Z,2.70
2023-04-04T16:13:53.998Z,2.70
2023-04-04T16:16:31.712Z,2.70
2023-04-04T16:19:00.373Z,2.70
2023-04-04T16:21:28.877Z,2.60
2023-04-04T16:23:58.756Z,2.60
2023-04-04T16:26:27.264Z,2.60
2023-04-04T16:28:55.812Z,2.50
2023-04-04T16:31:24.790Z,2.40
2023-04-04T16:33:53.454Z,2.40
2023-04-04T16:36:21.940Z,2.40
2023-04-04T16:38:50.397Z,2.50
2023-04-04T16:41:20.212Z,2.50
2023-04-04T16:43:52.594Z,2.40
2023-04-04T16:46:21.373Z,2.30
2023-04-04T16:48:49.907Z,2.30
2023-04-04T16:51:18.367Z,2.30
2023-04-04T16:54:13.134Z,2.20
2023-04-04T16:56:43.115Z,2.20
2023-04-04T16:59:11.770Z,2.20
2023-04-04T17:01:40.398Z,2.20
2023-04-04T17:04:09.037Z,2.20
2023-04-04T17:06:37.460Z,2.20
2023-04-04T17:09:06.093Z,2.10
2023-04-04T17:11:34.605Z,2.10
2023-04-04T17:14:04.414Z,2.10
2023-04-04T17:16:33.156Z,2.00
2023-04-04T17:19:01.577Z,2.10
2023-04-04T17:21:30.155Z,2.10
2023-04-04T17:23:58.651Z,2.10
2023-04-04T17:26:27.647Z,2.00
2023-04-04T17:28:56.171Z,2.00
2023-04-04T17:31:26.073Z,2.10
2023-04-04T17:33:54.536Z,2.00
2023-04-04T17:36:23.013Z,1.90
2023-04-04T17:38:52.057Z,1.90
2023-04-04T17:41:20.600Z,1.90
2023-04-04T17:43:49.062Z,1.90
2023-04-04T17:46:17.917Z,1.80
2023-04-04T17:48:48.125Z,1.80
2023-04-04T17:51:16.587Z,1.80
2023-04-04T17:53:45.229Z,1.80
2023-04-04T17:56:14.032Z,1.80
2023-04-04T17:58:43.284Z,1.90
2023-04-04T18:01:12.449Z,1.80
2023-04-04T18:03:41.311Z,1.70
2023-04-04T18:06:11.277Z,1.80
2023-04-04T18:08:39.717Z,1.70
2023-04-04T18:11:08.740Z,1.70
2023-04-04T18:13:37.198Z,1.70
2023-04-04T18:16:07.450Z,1.70
2023-04-04T18:18:37.458Z,1.70
2023-04-04T18:21:06.673Z,1.70
2023-04-04T18:23:36.497Z,1.70
2023-04-04T18:26:30.095Z,1.60
2023-04-04T18:28:58.788Z,1.70
2023-04-04T18:31:27.876Z,1.60
2023-04-04T18:33:56.821Z,1.60
2023-04-04T18:36:25.369Z,1.60
2023-04-04T18:38:55.232Z,1.70
2023-04-04T18:41:23.744Z,1.70
2023-04-04T18:43:52.317Z,1.70
2023-04-04T18:46:20.830Z,1.70
2023-04-04T18:48:49.273Z,1.70
2023-04-04T18:51:17.822Z,1.70
2023-04-04T18:53:46.434Z,1.70
2023-04-04T18:56:16.485Z,1.70
2023-04-04T18:58:45.041Z,1.70
2023-04-04T19:01:15.907Z,1.70
2023-04-04T19:03:47.544Z,1.70
2023-04-04T19:06:16.464Z,1.70
2023-04-04T19:09:11.230Z,1.70
2023-04-04T19:11:43.132Z,1.70
2023-04-04T19:14:11.560Z,1.70
2023-04-04T19:16:41.205Z,1.60
2023-04-04T19:19:09.948Z,1.60
2023-04-04T19:21:38.438Z,1.70
2023-04-04T19:24:07.868Z,1.70
2023-04-04T19:26:36.484Z,1.60
2023-04-04T19:29:06.998Z,1.60
2023-04-04T19:31:45.024Z,1.60
2023-04-04T19:34:15.167Z,1.50
2023-04-04T19:36:43.734Z,1.40
2023-04-04T19:39:12.575Z,1.40
2023-04-04T19:41:42.301Z,1.50
2023-04-04T19:44:21.433Z,1.50
2023-04-04T19:46:50.468Z,1.50
2023-04-04T19:49:19.309Z,1.50
2023-04-04T19:51:53.573Z,1.60
2023-04-04T19:54:28.104Z,1.60
2023-04-04T19:57:01.658Z,1.60
2023-04-04T20:00:03.894Z,1.60
2023-04-04T20:03:29.199Z,1.60
2023-04-04T20:06:10.726Z,1.60
2023-04-04T20:08:46.662Z,1.60
2023-04-04T20:11:16.876Z,1.60
2023-04-04T20:13:46.598Z,1.50
2023-04-04T20:16:17.819Z,1.50
2023-04-04T20:18:47.553Z,1.50
2023-04-04T20:21:18.658Z,1.50
2023-04-04T20:23:53.461Z,1.50
2023-04-04T20:26:55.491Z,1.50
2023-04-04T20:29:27.650Z,1.50
2023-04-04T20:31:59.548Z,1.40
2023-04-04T20:34:41.870Z,1.50
2023-04-04T20:37:13.621Z,1.50
2023-04-04T20:39:47.662Z,1.50
2023-04-04T20:42:38.229Z,1.50
2023-04-04T20:45:46.800Z,1.50
2023-04-04T20:48:40.537Z,1.50
2023-04-04T20:51:31.417Z,1.50
2023-04-04T20:54:01.998Z,1.40
2023-04-04T20:56:55.507Z,1.50
2023-04-04T20:59:37.421Z,1.50
2023-04-04T21:02:39.981Z,1.50
2023-04-04T21:05:27.825Z,1.40
2023-04-04T21:07:56.675Z,1.50
2023-04-04T21:10:49.142Z,1.50
2023-04-04T21:13:19.605Z,1.50
2023-04-04T21:15:50.016Z,1.50
2023-04-04T21:18:27.833Z,1.60
2023-04-04T21:21:19.746Z,1.60
2023-04-04T21:23:52.594Z,1.60
2023-04-04T21:26:31.925Z,1.60
2023-04-04T21:29:03.142Z,1.50
2023-04-04T21:31:38.354Z,1.60
2023-04-04T21:34:38.822Z,1.50
2023-04-04T21:37:17.584Z,1.50
2023-04-04T21:39:49.888Z,1.50
2023-04-04T21:42:19.504Z,1.50
2023-04-04T21:44:47.967Z,1.50
2023-04-04T21:47:16.536Z,1.60
2023-04-04T21:49:44.975Z,1.60
2023-04-04T21:52:49.641Z,1.60
2023-04-04T21:55:19.844Z,1.50
2023-04-04T21:57:49.965Z,1.60
2023-04-04T22:00:19.018Z,1.60
2023-04-04T22:02:47.482Z,1.50
2023-04-04T22:05:41.268Z,1.50
2023-04-04T22:08:11.845Z,1.50
2023-04-04T22:10:47.451Z,1.50
2023-04-04T22:13:17.132Z,1.50
2023-04-04T22:15:48.458Z,1.40
2023-04-04T22:18:18.069Z,1.40
2023-04-04T22:20:54.741Z,1.50
2023-04-04T22:23:35.537Z,1.50
2023-04-04T22:26:06.258Z,1.60
2023-04-04T22:28:35.886Z,1.60
2023-04-04T22:31:29.596Z,1.60
2023-04-04T22:33:58.197Z,1.60
2023-04-04T22:36:26.842Z,1.50
2023-04-04T22:38:58.150Z,1.50
2023-04-04T22:41:28.831Z,1.50
2023-04-04T22:43:58.046Z,1.50
2023-04-04T22:46:29.311Z,1.50
2023-04-04T22:49:06.619Z,1.50
2023-04-04T22:51:45.638Z,1.50
2023-04-04T22:54:17.316Z,1.50
2023-04-04T22:56:48.606Z,1.50
2023-04-04T22:59:17.125Z,1.40
2023-04-04T23:01:45.618Z,1.50
2023-04-04T23:04:21.556Z,1.50
2023-04-04T23:07:15.200Z,1.50
2023-04-04T23:09:45.054Z,1.50
2023-04-04T23:12:13.448Z,1.40
2023-04-04T23:14:41.925Z,1.40
2023-04-04T23:17:10.853Z,1.40
2023-04-04T23:19:39.332Z,1.50
2023-04-04T23:22:07.870Z,1.40
2023-04-04T23:24:38.742Z,1.40
2023-04-04T23:27:08.851Z,1.40
2023-04-04T23:29:42.644Z,1.40
2023-04-04T23:32:11.667Z,1.50
2023-04-04T23:34:40.144Z,1.50
2023-04-04T23:37:08.616Z,1.50
2023-04-04T23:40:02.075Z,1.50
2023-04-04T23:42:50.767Z,1.50
2023-04-04T23:45:19.219Z,1.60
2023-04-04T23:47:47.773Z,1.50
2023-04-04T23:50:17.205Z,1.50
2023-04-04T23:52:45.779Z,1.50
2023-04-04T23:55:14.444Z,1.50
2023-04-04T23:57:43.699Z,1.40
